Krosno Airport


Codes: EPKR/
Name: Krosno Airport
City: Krosno
Country: Poland
Elevation: 922 ft.

Photos at Krosno Airport


   Photos courtesy of SpottingLog. You can add your own sightings and photos by signing up for a free trial today.



No photos found.

Weather at Krosno Airport


Time (UTC)DescriptionTempratureWindCloud coverageVisibilityPressureHumidity
21-Jun-2024 12:00Clear Sky27°C2 mph, SE3%10000m1016hPa53%
21-Jun-2024 15:00Clear Sky28°C7 mph, SE3%10000m1015hPa54%
21-Jun-2024 18:00Light Rain24°C4 mph, SE2%10000m1014hPa73%
21-Jun-2024 21:00Clear Sky20°C9 mph, SE6%10000m1012hPa87%
22-Jun-2024 00:00Few Clouds20°C9 mph, S11%10000m1010hPa86%
22-Jun-2024 03:00Overcast Clouds20°C7 mph, SW100%10000m1010hPa86%
22-Jun-2024 06:00Overcast Clouds23°C7 mph, SW100%10000m1010hPa76%
22-Jun-2024 09:00Light Rain24°C9 mph, SW98%10000m1010hPa80%
22-Jun-2024 12:00Light Rain21°C7 mph, SW99%10000m1011hPa91%
22-Jun-2024 15:00Light Rain22°C9 mph, W100%10000m1011hPa85%
22-Jun-2024 18:00Light Rain20°C11 mph, N98%10000m1011hPa89%
22-Jun-2024 21:00Broken Clouds15°C4 mph, NW76%10000m1013hPa96%
23-Jun-2024 00:00Overcast Clouds15°C2 mph, NW88%10000m1013hPa94%
23-Jun-2024 03:00Overcast Clouds15°C2 mph, NW100%10000m1014hPa92%
23-Jun-2024 06:00Broken Clouds18°C4 mph, NW71%10000m1015hPa75%
23-Jun-2024 09:00Scattered Clouds21°C7 mph, N47%10000m1015hPa61%
23-Jun-2024 12:00Scattered Clouds23°C9 mph, NW30%10000m1014hPa53%
23-Jun-2024 15:00Scattered Clouds23°C9 mph, NW32%10000m1014hPa55%
23-Jun-2024 18:00Broken Clouds19°C7 mph, N66%10000m1015hPa78%
23-Jun-2024 21:00Overcast Clouds16°C2 mph, NW95%10000m1016hPa87%
24-Jun-2024 00:00Broken Clouds14°C4 mph, NW84%10000m1016hPa91%
24-Jun-2024 03:00Scattered Clouds13°C2 mph, NW46%10000m1017hPa93%
24-Jun-2024 06:00Scattered Clouds17°C7 mph, NW38%10000m1017hPa74%
24-Jun-2024 09:00Few Clouds20°C11 mph, NW21%10000m1017hPa63%
24-Jun-2024 12:00Broken Clouds20°C11 mph, NW55%10000m1017hPa63%
24-Jun-2024 15:00Overcast Clouds19°C7 mph, NW100%10000m1017hPa69%
24-Jun-2024 18:00Overcast Clouds18°C4 mph, NW100%10000m1017hPa74%
24-Jun-2024 21:00Broken Clouds14°C4 mph, N68%10000m1018hPa89%
25-Jun-2024 00:00Scattered Clouds13°C2 mph, W34%10000m1018hPa91%
25-Jun-2024 03:00Clear Sky12°C2 mph, NW5%10000m1018hPa94%
25-Jun-2024 06:00Clear Sky17°C4 mph, N5%10000m1017hPa77%
25-Jun-2024 09:00Few Clouds22°C7 mph, NE19%10000m1016hPa62%
25-Jun-2024 12:00Light Rain22°C7 mph, NE51%10000m1016hPa64%
25-Jun-2024 15:00Overcast Clouds22°C7 mph, NE100%10000m1015hPa64%
25-Jun-2024 18:00Broken Clouds19°C4 mph, E83%10000m1014hPa79%
25-Jun-2024 21:00Broken Clouds15°C2 mph, E71%10000m1014hPa90%
26-Jun-2024 00:00Overcast Clouds14°C4 mph, NE85%10000m1013hPa94%
26-Jun-2024 03:00Overcast Clouds14°C4 mph, NE88%10000m1012hPa95%
26-Jun-2024 06:00Overcast Clouds19°C11 mph, E94%10000m1012hPa77%
26-Jun-2024 09:00Overcast Clouds23°C11 mph, E100%10000m1010hPa62%